Time;durP1;ratioP1;P1;durP2;ratioP2;P2;SDS_P1;SDS_P2;PMS_P1;PMS_P2;Temp;Humidity;BMP_temperature;BMP_pressure;BME280_temperature;BME280_humidity;BME280_pressure;Samples;Min_cycle;Max_cycle;Signal;HPM_P1;HPM_P2
2022/12/16 00:00:07;;;;;;;1.47;1.37;;;2.60;99.90;;;;;;6164713;23;20245;-89
2022/12/16 00:02:33;;;;;;;0.60;0.60;;;2.60;99.90;;;;;;6166599;23;20158;-89
2022/12/16 00:04:58;;;;;;;1.80;1.70;;;2.60;99.90;;;;;;6166657;23;20471;-88
2022/12/16 00:07:24;;;;;;;3.50;1.10;;;2.60;99.90;;;;;;6142081;23;20236;-88
2022/12/16 00:09:50;;;;;;;1.80;1.27;;;2.60;99.90;;;;;;6166844;23;20212;-88
2022/12/16 00:12:16;;;;;;;0.40;0.40;;;2.50;99.90;;;;;;6142059;23;20162;-89
2022/12/16 00:14:41;;;;;;;2.40;0.70;;;2.50;99.90;;;;;;6166643;23;20181;-89
2022/12/16 00:17:07;;;;;;;0.43;0.43;;;2.50;99.90;;;;;;6122050;23;20214;-89
2022/12/16 00:19:34;;;;;;;1.00;1.00;;;2.50;99.90;;;;;;6137008;23;20234;-89
2022/12/16 00:22:00;;;;;;;0.40;0.40;;;2.60;99.90;;;;;;6112976;23;20159;-89
2022/12/16 00:24:25;;;;;;;1.90;1.17;;;2.50;99.90;;;;;;6113060;23;20516;-88
2022/12/16 00:26:51;;;;;;;1.33;1.23;;;2.50;99.90;;;;;;6136584;23;20592;-89
2022/12/16 00:29:17;;;;;;;2.10;0.80;;;2.50;99.90;;;;;;6112186;23;20155;-88
2022/12/16 00:31:46;;;;;;;24.40;2.27;;;2.50;99.90;;;;;;6112547;23;20162;-89
2022/12/16 00:34:13;;;;;;;0.77;0.77;;;2.50;99.90;;;;;;6162206;23;20158;-89
2022/12/16 00:36:39;;;;;;;12.93;0.80;;;2.50;99.90;;;;;;6161051;23;20761;-88
2022/12/16 00:39:05;;;;;;;0.60;0.60;;;2.50;99.90;;;;;;6112042;23;20186;-88
2022/12/16 00:41:31;;;;;;;0.97;0.97;;;2.40;99.90;;;;;;6136057;23;20216;-89
2022/12/16 00:43:56;;;;;;;0.73;0.47;;;2.40;99.90;;;;;;6136824;23;20238;-88
2022/12/16 00:46:22;;;;;;;0.77;0.77;;;2.40;99.90;;;;;;6136989;23;20604;-88
2022/12/16 00:48:48;;;;;;;2.20;1.03;;;2.40;99.90;;;;;;6137133;23;20603;-88
2022/12/16 00:51:13;;;;;;;0.53;0.53;;;2.40;99.90;;;;;;6136758;23;20241;-88
2022/12/16 00:53:39;;;;;;;0.50;0.50;;;2.50;99.90;;;;;;6112217;23;20217;-88
2022/12/16 00:56:08;;;;;;;0.53;0.53;;;2.50;99.90;;;;;;6136916;23;20170;-88
2022/12/16 00:58:34;;;;;;;1.33;1.23;;;2.60;99.90;;;;;;6161288;23;20186;-88
2022/12/16 01:01:00;;;;;;;0.90;0.90;;;2.50;99.90;;;;;;6137253;23;20155;-88
2022/12/16 01:03:26;;;;;;;0.40;0.40;;;2.50;99.90;;;;;;6112856;23;20154;-88
2022/12/16 01:05:51;;;;;;;0.67;0.67;;;2.40;99.90;;;;;;6137242;23;20174;-88
2022/12/16 01:08:18;;;;;;;0.93;0.93;;;2.40;99.90;;;;;;6112565;23;20623;-88
2022/12/16 01:10:55;;;;;;;0.70;0.50;;;2.30;99.90;;;;;;6161933;23;20155;-88
2022/12/16 01:13:23;;;;;;;0.60;0.60;;;2.30;99.90;;;;;;6161549;23;20155;-88
2022/12/16 01:15:49;;;;;;;1.03;1.03;;;2.40;99.90;;;;;;6165378;23;20237;-88
2022/12/16 01:18:16;;;;;;;0.40;0.40;;;2.50;99.90;;;;;;6166310;23;20559;-88
2022/12/16 01:20:42;;;;;;;0.63;0.63;;;2.60;99.90;;;;;;6191176;23;20245;-88
2022/12/16 01:23:08;;;;;;;0.63;0.63;;;2.70;99.90;;;;;;6166698;23;20541;-89
2022/12/16 01:25:34;;;;;;;0.90;0.83;;;2.70;99.90;;;;;;6166210;23;20240;-88
2022/12/16 01:28:00;;;;;;;5.43;0.80;;;2.70;99.90;;;;;;6141865;23;20158;-88
2022/12/16 01:30:25;;;;;;;0.50;0.50;;;2.60;99.90;;;;;;6166265;23;20163;-88
2022/12/16 01:32:51;;;;;;;0.67;0.67;;;2.60;99.90;;;;;;6166597;23;20166;-88
2022/12/16 01:35:17;;;;;;;0.40;0.40;;;2.50;99.90;;;;;;6166757;23;20702;-88
2022/12/16 01:37:43;;;;;;;0.30;0.30;;;2.50;99.90;;;;;;6166244;23;20193;-88
2022/12/16 01:40:17;;;;;;;0.83;0.77;;;2.50;99.90;;;;;;6141763;23;20225;-88
2022/12/16 01:42:44;;;;;;;1.73;0.57;;;2.50;99.90;;;;;;6191027;23;20142;-87
2022/12/16 01:45:29;;;;;;;0.30;0.30;;;2.50;99.90;;;;;;6142130;23;20154;-88
2022/12/16 01:47:57;;;;;;;0.63;0.63;;;2.50;99.90;;;;;;6191111;23;20166;-88
2022/12/16 01:50:24;;;;;;;0.37;0.37;;;2.50;99.90;;;;;;6190799;23;20165;-90
2022/12/16 01:52:54;;;;;;;0.27;0.27;;;2.50;99.90;;;;;;6190210;23;20542;-87
2022/12/16 01:55:40;;;;;;;0.40;0.40;;;2.50;99.90;;;;;;6190696;23;20200;-88
2022/12/16 01:58:11;;;;;;;0.50;0.50;;;2.50;99.90;;;;;;6189977;23;20269;-88
2022/12/16 02:00:39;;;;;;;2.17;0.63;;;2.50;99.90;;;;;;6190847;23;20142;-88
2022/12/16 02:03:06;;;;;;;0.83;0.83;;;2.50;99.90;;;;;;6190883;23;20613;-88
2022/12/16 02:05:35;;;;;;;1.10;0.90;;;2.50;99.90;;;;;;6190819;23;20208;-89
2022/12/16 02:08:06;;;;;;;0.30;0.30;;;2.50;99.90;;;;;;6190637;23;20162;-88
2022/12/16 02:10:41;;;;;;;0.60;0.60;;;2.60;99.90;;;;;;6190707;23;20146;-88
2022/12/16 02:13:35;;;;;;;0.30;0.30;;;2.60;99.90;;;;;;6190655;23;20162;-88
2022/12/16 02:16:08;;;;;;;0.30;0.30;;;2.70;99.90;;;;;;6190369;23;20200;-88
2022/12/16 02:19:02;;;;;;;0.37;0.37;;;2.60;99.90;;;;;;6215846;23;20198;-88
2022/12/16 02:21:39;;;;;;;0.63;0.63;;;2.60;99.90;;;;;;6216151;23;20226;-88
2022/12/16 02:24:10;;;;;;;0.87;0.87;;;2.60;99.90;;;;;;6215777;23;20141;-88
2022/12/16 02:27:03;;;;;;;0.73;0.57;;;2.60;99.90;;;;;;6215654;23;20696;-88
2022/12/16 02:29:54;;;;;;;0.47;0.47;;;2.60;99.90;;;;;;6190350;23;20142;-88
2022/12/16 02:32:20;;;;;;;0.30;0.30;;;2.60;99.90;;;;;;6215776;23;20209;-88
2022/12/16 02:35:34;;;;;;;0.67;0.67;;;2.70;99.90;;;;;;6217487;23;20207;-88
2022/12/16 02:38:22;;;;;;;0.50;0.50;;;2.70;99.90;;;;;;6220394;23;20184;-88
2022/12/16 02:41:00;;;;;;;0.50;0.50;;;2.70;99.90;;;;;;6220817;23;20142;-88
2022/12/16 02:43:45;;;;;;;7.30;1.13;;;2.80;99.90;;;;;;6220486;23;20193;-88
2022/12/16 02:46:11;;;;;;;0.93;0.93;;;2.80;99.90;;;;;;6220638;23;20574;-88
2022/12/16 02:48:37;;;;;;;1.03;1.03;;;2.80;99.90;;;;;;6220484;23;20157;-88
2022/12/16 02:51:03;;;;;;;1.17;0.80;;;2.80;99.90;;;;;;6195274;23;20219;-88
2022/12/16 02:53:31;;;;;;;0.30;0.30;;;2.80;99.90;;;;;;6170936;23;20161;-88
2022/12/16 02:56:09;;;;;;;0.30;0.30;;;2.90;99.90;;;;;;6220557;23;20594;-88
2022/12/16 02:58:49;;;;;;;0.70;0.40;;;2.80;99.90;;;;;;6220278;23;20625;-87
2022/12/16 03:01:18;;;;;;;1.80;0.93;;;2.80;99.90;;;;;;6220145;23;20153;-88
2022/12/16 03:03:54;;;;;;;0.30;0.30;;;2.80;99.90;;;;;;6220630;23;20154;-88
2022/12/16 03:06:21;;;;;;;0.70;0.70;;;2.70;99.90;;;;;;6220154;23;20137;-88
2022/12/16 03:08:53;;;;;;;0.37;0.37;;;2.80;99.90;;;;;;6195824;23;20590;-88
2022/12/16 03:11:19;;;;;;;0.80;0.80;;;2.80;99.90;;;;;;6220909;23;20498;-88
2022/12/16 03:13:49;;;;;;;0.77;0.77;;;2.90;99.90;;;;;;6220671;23;20164;-88
2022/12/16 03:16:19;;;;;;;0.77;0.77;;;2.80;99.90;;;;;;6220289;23;20200;-88
2022/12/16 03:18:49;;;;;;;0.50;0.50;;;2.80;99.90;;;;;;6220152;23;20199;-88
2022/12/16 03:21:17;;;;;;;0.70;0.70;;;2.80;99.90;;;;;;6220706;23;20137;-88
2022/12/16 03:23:48;;;;;;;0.43;0.43;;;2.70;99.90;;;;;;6195655;23;20154;-88
2022/12/16 03:26:29;;;;;;;0.90;0.83;;;2.80;99.90;;;;;;6219908;23;20153;-88
2022/12/16 03:29:06;;;;;;;5.50;0.93;;;2.80;99.90;;;;;;6220553;23;20150;-88
2022/12/16 03:31:50;;;;;;;0.33;0.33;;;2.70;99.90;;;;;;6220466;23;20149;-88
2022/12/16 03:34:19;;;;;;;1.00;1.00;;;2.70;99.90;;;;;;6220978;23;20189;-88
2022/12/16 03:36:51;;;;;;;0.67;0.67;;;2.80;99.90;;;;;;6222057;23;20245;-88
2022/12/16 03:39:20;;;;;;;1.17;1.07;;;2.80;99.90;;;;;;6222258;23;20142;-88
2022/12/16 03:41:49;;;;;;;0.20;0.20;;;2.80;99.90;;;;;;6221523;23;20157;-88
2022/12/16 03:44:16;;;;;;;0.60;0.60;;;2.80;99.90;;;;;;6222149;23;20161;-88
2022/12/16 03:46:41;;;;;;;1.67;1.23;;;2.70;99.90;;;;;;6196554;23;20157;-88
2022/12/16 03:49:07;;;;;;;0.47;0.47;;;2.70;99.90;;;;;;6171191;23;20207;-88
2022/12/16 03:51:33;;;;;;;0.77;0.77;;;2.70;99.90;;;;;;6172658;23;20169;-89
2022/12/16 03:53:58;;;;;;;2.80;0.50;;;2.80;99.90;;;;;;6172278;23;20157;-88
2022/12/16 03:56:24;;;;;;;1.67;1.37;;;2.80;99.90;;;;;;6197052;23;20165;-88
2022/12/16 03:58:50;;;;;;;1.13;0.97;;;2.80;99.90;;;;;;6172406;23;20216;-88
2022/12/16 04:01:15;;;;;;;1.23;1.10;;;2.90;99.90;;;;;;6172396;23;20244;-88
2022/12/16 04:03:41;;;;;;;1.20;1.20;;;2.80;99.90;;;;;;6197388;23;20161;-88
2022/12/16 04:06:07;;;;;;;0.70;0.70;;;2.90;99.90;;;;;;6197268;23;20158;-88
2022/12/16 04:08:33;;;;;;;0.40;0.40;;;2.90;99.90;;;;;;6172762;23;20162;-88
2022/12/16 04:25:09;;;;;;;0.60;0.60;;;3.10;99.90;;;;;;6248957;23;20149;-88
2022/12/16 04:27:35;;;;;;;1.23;1.23;;;3.10;99.90;;;;;;6222231;23;20142;-88
2022/12/16 04:30:19;;;;;;;2.13;1.23;;;3.10;99.90;;;;;;6221648;23;20165;-88
